San Pablo, CA

11:22 PM PST on November 27, 2014 (GMT -0800)
Metro Oakland International | Change Station
CLOSE
Current Station
Airport
Location: Oakland,
Elevation: 7 ft
Nearby Weather Stations

Elev 7 ft 37.72 °N, 122.23 °W | Updated 16 minutes ago

Clear
Clear
46 °F
Feels Like 46 °F
N
0
Wind Variable Wind from North

Today
High -- | Low -- °F
--% Chance of Precip.
Yesterday
High -- | Low -- °F
Precip. -- in
7:02 AM 4:51 PM
Waxing Crescent, 37% visible
Pressure 30.08 in
Visibility 2.0 miles
Clouds Few 700 ft
Dew Point 45 °F
Humidity 93%
Rainfall 0.00 in
Snow Depth Not available.
UV 0 out of 12
Pollen 2.50 out of 12
Air Quality Not available.
Flu Activity Not available.
SPECI KOAK 280706Z 00000KT 2SM MIFG BR FEW007 08/07 A3008 RMK AO2 $

More Conditions Fewer Conditions

Pressure 30.08 in
Visibility 2.0 miles
Clouds Few 700 ft
Dew Point 45 °F
Humidity 93%
Rainfall 0.00 in
Snow Depth Not available.
UV 0 out of 12
Pollen 2.50 out of 12
Air Quality Not available.
Flu Activity Not available.
SPECI KOAK 280706Z 00000KT 2SM MIFG BR FEW007 08/07 A3008 RMK AO2 $

More Conditions Fewer Conditions

10-Day Weather Forecast

Almanac

Astronomy

Nov. 27, 2014 Rise Set
Actual Time
Civil Twilight
Nautical Twilight
Astronomical Twilight
Moon
Length of Visible Light
Length of Day
Tomorrow will be .
, % of the Moon is Illuminated

Today's Extremes

State Highs State Lows

Community

WunderPhotos

Upload Photos

1,774,190 photos uploaded!

WunderBlogs® & News

Nearby

Air Quality

  Air Quality AQ Index Pollutant
Not available.

Snow Depth

Station Depth Elevation

Earthquake Activity

City Distance Mag. Time & Date
Minimum magnitude displayed is 2.5.

Coastal Water Temperatures

Place Temperature

Nearby Weather Stations